• Join FlightAware (Why Join?)
  • Login
  • US Flag 
07:15PM EST


 

Airport Tracker/Info


-or-


 

Live Flight TrackerFlight Track Log ✈ N448TT ✈ 01-Aug-2014 ✈ KDRO - KAPA

Flight Track Log - Related Links

Times and Time Zones

All times are in EDT time to prevent confusion due to time zone crossing. See the N448TT flight status page for this flight to view local times or setup timezone preferences in your user account.

Time Position Orientation Groundspeed Altitude Reporting Facility
EDT Latitude Longitude Course Direction KTS MPH feet Rate Location/Type
11:23AM 37.1228 -107.6622 137° Southeast 134 154 8,700  Level Denver Center
11:24AM 37.0947 -107.6294 137° Southeast 134 154 9,400 660 Climbing Denver Center
11:25AM 37.0981 -107.5814 85° East 143 165 10,100 660 Climbing Denver Center
11:26AM 37.0900 -107.5322 102° East 141 162 10,800 660 Climbing Denver Center
11:27AM 37.0706 -107.4722 112° Southeast 148 170 11,500 660 Climbing Denver Center
11:28AM 37.0542 -107.4175 111° Southeast 162 186 12,200 660 Climbing Denver Center
11:29AM 37.0381 -107.3633 110° East 163 188 12,900 300 Climbing Denver Center
11:30AM 37.0219 -107.3061 109° East 168 193 12,900  Level Denver Center
11:31AM 36.9994 -107.2378 112° Southeast 180 207 12,900  Level Denver Center
11:32AM 36.9814 -107.1792 111° Southeast 183 211 12,900  Level Denver Center
11:33AM 36.9606 -107.1100 111° Southeast 185 213 12,900  Level Denver Center
11:34AM 36.9428 -107.0508 111° Southeast 186 214 12,900  Level Denver Center
11:35AM 36.9214 -106.9828 111° Southeast 186 214 12,900  Level Denver Center
11:36AM 36.9039 -106.9236 110° East 186 214 12,900  Level Denver Center
11:37AM 36.8828 -106.8553 111° Southeast 186 214 12,900  Level Denver Center
11:38AM 36.8644 -106.7964 111° Southeast 187 215 12,900  Level Denver Center
11:39AM 36.8458 -106.7381 112° Southeast 187 215 12,900  Level Denver Center
11:40AM 36.8250 -106.6697 111° Southeast 187 215 12,900  Level Denver Center
11:41AM 36.8408 -106.6164 70° East 182 209 12,900  Level Denver Center
11:42AM 36.8778 -106.5622 50° Northeast 182 209 12,900  Level Denver Center
11:43AM 36.9089 -106.5144 51° Northeast 182 209 12,900  Level Denver Center
11:44AM 36.9439 -106.4592 52° Northeast 182 209 12,900  Level Denver Center
11:45AM 36.9725 -106.4108 53° Northeast 182 209 12,900  Level Denver Center
11:46AM 37.0078 -106.3564 51° Northeast 182 209 12,900 60 Level Denver Center
11:47AM 37.0375 -106.3111 51° Northeast 181 208 13,100 240 Climbing Denver Center
11:49AM 37.0706 -106.2619 50° Northeast 171 197 13,500 360 Climbing Denver Center
11:50AM 37.0961 -106.2192 53° Northeast 166 191 13,900 240 Climbing Denver Center
11:51AM 37.1281 -106.1653 53° Northeast 167 192 14,000 240 Climbing Denver Center
11:52AM 37.1578 -106.1222 49° Northeast 170 196 14,400 480 Climbing Denver Center
11:53AM 37.1881 -106.0706 54° Northeast 169 194 15,000 240 Climbing Denver Center
11:54AM 37.2181 -106.0228 52° Northeast 172 198 14,900 -60 Descending Denver Center
11:55AM 37.2547 -105.9678 50° Northeast 180 207 14,900  Level Denver Center
11:56AM 37.2808 -105.9256 52° Northeast 180 207 14,900 -60 Level Denver Center
11:58AM 37.3583 -105.7722 62° Northeast 192 221 14,800 -60 Descending Denver Center
11:59AM 37.3736 -105.7089 73° East 190 219 14,800  Level Denver Center
12:01PM 37.3878 -105.6483 74° East 187 215 14,800  Level Denver Center
12:02PM 37.4011 -105.5911 74° East 179 206 14,800  Level Denver Center
12:03PM 37.4147 -105.5278 75° East 166 191 14,800  Level Denver Center
12:04PM 37.4267 -105.4744 74° East 163 188 14,800 -60 Level Denver Center
12:05PM 37.4392 -105.4164 75° East 165 190 14,700  Descending Denver Center
12:06PM 37.4042 -105.4108 173° South 186 214 14,800  Climbing Denver Center
12:07PM 37.3981 -105.4686 262° West 174 200 14,800  Level Denver Center
12:08PM 37.4039 -105.5225 278° West 162 186 14,800  Level Denver Center
12:09PM 37.4025 -105.5792 268° West 145 167 14,800  Level Denver Center
12:10PM 37.3936 -105.6233 256° West 136 157 14,800  Level Denver Center
12:11PM 37.3692 -105.6053 150° Southeast 150 173 14,800  Level Denver Center
12:12PM 37.3894 -105.5608 60° Northeast 147 169 14,800 -300 Level Denver Center
12:13PM 37.4139 -105.5144 56° Northeast 150 173 14,200 -420 Descending Denver Center
12:14PM 37.4339 -105.4550 67° East 172 198 14,000 -120 Descending Denver Center
12:15PM 37.4486 -105.3825 76° East 177 204 14,000  Level Denver Center
12:16PM 37.4614 -105.3217 75° East 177 204 14,000  Level Denver Center
12:17PM 37.4803 -105.2633 68° East 177 204 14,000  Level Denver Center
12:18PM 37.4939 -105.2036 74° East 177 204 14,000  Level Denver Center
12:19PM 37.5014 -105.1408 81° East 178 205 14,000  Level Denver Center
12:20PM 37.5169 -105.0669 75° East 178 205 14,000  Level Denver Center
12:21PM 37.5306 -105.0075 74° East 178 205 14,000  Level Denver Center
12:22PM 37.5436 -104.9472 75° East 178 205 14,000  Level Denver Center
12:23PM 37.5575 -104.8867 74° East 178 205 14,000  Level Denver Center
12:24PM 37.5708 -104.8264 74° East 178 205 14,000  Level Denver Center
12:25PM 37.5839 -104.7653 75° East 178 205 14,000  Level Denver Center
12:26PM 37.6003 -104.6917 74° East 179 206 14,100  Climbing Denver Center
12:27PM 37.6128 -104.6306 76° East 179 206 14,100  Level Denver Center
12:28PM 37.6450 -104.5908 44° Northeast 178 205 14,100  Level Denver Center
12:29PM 37.6936 -104.5783 12° North 178 205 14,100  Level Denver Center
12:31PM 37.7417 -104.5656 12° North 178 205 14,100  Level Denver Center
12:32PM 37.7903 -104.5550 10° North 178 205 14,100  Level Denver Center
12:33PM 37.8389 -104.5425 11° North 178 205 14,100  Level Denver Center
12:34PM 37.8967 -104.5281 11° North 178 205 14,100  Level Denver Center
12:35PM 37.9442 -104.5167 11° North 177 204 14,100 -240 Level Denver Center
12:36PM 37.9931 -104.5050 11° North 177 204 13,600 -480 Descending Denver Center
12:37PM 38.0450 -104.4917 11° North 181 208 13,100 -300 Descending Denver Center
12:38PM 38.0961 -104.4786 11° North 184 212 13,100  Level Denver Center
12:39PM 38.1433 -104.4664 12° North 183 211 13,100  Level Denver Center
12:40PM 38.1994 -104.4525 11° North 176 203 13,100  Level Denver Center
12:41PM 38.2467 -104.4403 11° North 176 203 13,100  Level Denver Center
12:42PM 38.2931 -104.4297 10° North 175 201 13,100  Level Denver Center
12:43PM 38.3394 -104.4425 348° North 174 200 13,100  Level Denver Center
12:44PM 38.3856 -104.4556 347° North 173 199 13,100  Level Denver Center
12:45PM 38.4314 -104.4717 345° North 173 199 13,100 -120 Level Denver Center
12:46PM 38.4875 -104.4889 346° North 173 199 12,900 -60 Descending Denver Center
12:47PM 38.5347 -104.5036 346° North 173 199 13,000  Climbing Denver Center
12:48PM 38.5811 -104.5161 348° North 172 198 13,000  Level Denver Center
12:49PM 38.6267 -104.5311 346° North 172 198 13,000  Level Denver Center
12:50PM 38.6742 -104.5439 348° North 172 198 13,000  Level Denver Center
12:51PM 38.7306 -104.5619 346° North 172 198 13,000  Level Denver Center
12:52PM 38.7772 -104.5775 345° North 173 199 13,000  Level Denver Center
12:53PM 38.8239 -104.5931 345° North 173 199 13,000  Level Denver Center
12:54PM 38.8411 -104.5972 349° North 177 204 13,000 -120 Level Denver Center
12:54PM 38.8758 -104.6103 344° North 173 199 12,900 -60 Descending Denver Center
12:55PM 38.9217 -104.6244 346° North 171 197 12,900  Level Denver Center
12:56PM 38.9689 -104.6417 344° North 174 200 12,900 -300 Level Denver Center
12:57PM 39.0181 -104.6575 346° North 182 209 12,400 -660 Descending Denver Center
12:58PM 39.0717 -104.6769 344° North 199 229 11,600 -840 Descending Denver Center
01:00PM 39.1233 -104.6947 345° North 194 223 10,700 -840 Descending Denver Center
01:01PM 39.1825 -104.7150 345° North 191 220 9,900 -420 Descending Denver Center
01:02PM 39.2322 -104.7289 348° North 172 198 9,900 -360 Level Denver Center
01:03PM 39.2789 -104.7431 347° North 171 197 9,200 -540 Descending Denver Center
01:04PM 39.3311 -104.7581 347° North 177 204 8,900 -180 Descending Denver Center
01:05PM 39.3722 -104.7689 348° North 155 178 8,900  Level Denver Center
01:06PM 39.4094 -104.7483 23° Northeast 146 168 8,900  Level Denver Center
01:07PM 39.4558 -104.7533 355° North 154 177 8,900  Level Denver Center
01:08PM 39.4981 -104.7572 356° North 153 176 8,900 -120 Level Denver Center
01:09PM 39.5422 -104.7603 357° North 152 175 8,700 -540 Descending Denver Center
01:10PM 39.5872 -104.7647 356° North 157 181 7,900 -420 Descending Denver Center
01:11PM 39.6244 -104.7706 353° North 123 142 7,900 -180 Level Denver Center
01:12PM 39.6447 -104.8019 310° West 121 139 7,600 -660 Descending Denver Center
01:13PM 39.6369 -104.8447 257° West 124 143 6,600 -660 Descending Denver Center
01:14PM 39.6131 -104.8533 196° South 92 106 6,300 -420 Descending Denver Center
01:15PM 39.5878 -104.8517 177° South 92 106 5,800 -540 Descending Denver Center
01:17PM 39.5701 -104.8493 226° Southwest  Level Estimated
01:24PM 39.5701 -104.8493 226° Southwest  Level Estimated
01:25PM 39.5701 -104.8493 106° East  Level Estimated
01:26PM 39.5701 -104.8493 226° Southwest  Level Estimated